Time;durP1;ratioP1;P1;durP2;ratioP2;P2;SDS_P1;SDS_P2;PMS_P1;PMS_P2;Temp;Humidity;BMP_temperature;BMP_pressure;BME280_temperature;BME280_humidity;BME280_pressure;Samples;Min_cycle;Max_cycle;Signal;HPM_P1;HPM_P2
2023/06/20 00:00:19;;;;;;;6.03;5.53;;;23.30;99.90;;;;;;5092672;28;20168;-70
2023/06/20 00:02:44;;;;;;;6.43;5.82;;;23.30;99.90;;;;;;5092898;28;20669;-71
2023/06/20 00:05:10;;;;;;;8.65;7.85;;;23.30;99.90;;;;;;5092841;28;20189;-71
2023/06/20 00:07:36;;;;;;;7.43;6.30;;;23.30;99.90;;;;;;5092707;28;20197;-71
2023/06/20 00:10:01;;;;;;;7.32;6.72;;;23.30;99.90;;;;;;5092687;28;20170;-70
2023/06/20 00:12:27;;;;;;;6.72;6.13;;;23.30;99.90;;;;;;5092835;28;20531;-71
2023/06/20 00:14:53;;;;;;;6.43;5.13;;;23.20;99.90;;;;;;5092403;28;20185;-71
2023/06/20 00:17:18;;;;;;;9.27;5.85;;;23.10;99.90;;;;;;5092731;28;20177;-71
2023/06/20 00:19:44;;;;;;;6.38;5.80;;;23.00;99.90;;;;;;5074078;28;20176;-71
2023/06/20 00:22:10;;;;;;;6.75;5.47;;;22.90;99.90;;;;;;5092717;28;20170;-71
2023/06/20 00:24:35;;;;;;;7.45;6.75;;;22.80;99.90;;;;;;5092222;28;20235;-71
2023/06/20 00:27:02;;;;;;;7.68;5.80;;;22.80;99.90;;;;;;5074383;28;20204;-71
2023/06/20 00:29:28;;;;;;;6.80;5.80;;;22.70;99.90;;;;;;5092148;28;20166;-70
2023/06/20 00:31:53;;;;;;;9.40;6.50;;;22.60;99.90;;;;;;5074208;28;20208;-70
2023/06/20 00:34:19;;;;;;;8.85;6.90;;;22.50;99.90;;;;;;5092345;28;20184;-71
2023/06/20 00:36:45;;;;;;;8.15;6.18;;;22.50;99.90;;;;;;5092249;28;20158;-71
2023/06/20 00:39:10;;;;;;;10.13;9.32;;;22.40;99.90;;;;;;5091805;28;20174;-71
2023/06/20 00:41:36;;;;;;;26.48;24.85;;;22.20;99.90;;;;;;5092109;28;20162;-70
2023/06/20 00:44:05;;;;;;;11.02;9.75;;;22.10;99.90;;;;;;5092021;28;20554;-70
2023/06/20 00:46:41;;;;;;;12.45;11.27;;;22.00;99.90;;;;;;5092107;28;20169;-71
2023/06/20 00:49:09;;;;;;;8.27;7.47;;;21.90;99.90;;;;;;5091839;28;20165;-71
2023/06/20 00:51:37;;;;;;;7.95;7.20;;;21.80;99.90;;;;;;5073532;28;20170;-70
2023/06/20 00:54:03;;;;;;;7.85;7.05;;;21.70;99.90;;;;;;5091947;28;20224;-70
2023/06/20 00:56:29;;;;;;;7.85;7.05;;;21.70;99.90;;;;;;5092039;28;20189;-70
2023/06/20 00:58:55;;;;;;;9.27;6.55;;;21.60;99.90;;;;;;5091641;28;20171;-71
2023/06/20 01:01:21;;;;;;;7.70;7.07;;;21.50;99.90;;;;;;5090890;28;20169;-70
2023/06/20 01:03:49;;;;;;;8.95;6.50;;;21.50;99.90;;;;;;5091743;28;20165;-71
2023/06/20 01:06:23;;;;;;;9.05;8.23;;;21.40;99.90;;;;;;5091705;28;20246;-70
2023/06/20 01:09:08;;;;;;;7.88;7.07;;;21.40;99.90;;;;;;5073413;28;20203;-71
2023/06/20 01:11:47;;;;;;;7.47;6.28;;;21.40;99.90;;;;;;5091418;28;20221;-71
2023/06/20 01:14:44;;;;;;;8.60;5.72;;;21.40;99.90;;;;;;5091792;28;20161;-69
2023/06/20 01:17:22;;;;;;;7.10;6.10;;;21.40;99.90;;;;;;5091354;28;20541;-71
2023/06/20 01:20:05;;;;;;;10.40;6.80;;;21.40;99.90;;;;;;5073049;28;20177;-71
2023/06/20 01:22:57;;;;;;;7.18;6.57;;;21.40;99.90;;;;;;5091549;28;20174;-70
2023/06/20 01:25:31;;;;;;;10.38;9.48;;;21.40;99.90;;;;;;5091350;28;20617;-71
2023/06/20 01:28:08;;;;;;;9.57;7.43;;;21.50;99.90;;;;;;5091595;28;20200;-70
2023/06/20 01:30:41;;;;;;;9.15;8.45;;;21.50;99.90;;;;;;5091001;28;20218;-70
2023/06/20 01:33:08;;;;;;;7.20;6.50;;;21.60;99.90;;;;;;5090998;28;20202;-70
2023/06/20 01:35:36;;;;;;;8.52;7.72;;;21.60;99.90;;;;;;5091137;28;20189;-70
2023/06/20 01:38:07;;;;;;;9.57;7.25;;;21.60;99.90;;;;;;5091435;28;20169;-69
2023/06/20 01:40:35;;;;;;;8.93;8.13;;;21.60;99.90;;;;;;5091076;28;20189;-70
2023/06/20 01:43:01;;;;;;;8.52;7.93;;;21.70;99.90;;;;;;5091361;28;20523;-70
2023/06/20 01:45:29;;;;;;;7.50;6.75;;;21.70;99.90;;;;;;5073173;28;20197;-70
2023/06/20 01:48:01;;;;;;;9.73;9.02;;;21.70;99.90;;;;;;5091247;28;20170;-70
2023/06/20 01:50:29;;;;;;;8.27;6.43;;;21.70;99.90;;;;;;5091217;28;20256;-71
2023/06/20 01:52:57;;;;;;;6.90;6.30;;;21.80;99.90;;;;;;5091040;28;20193;-70
2023/06/20 01:55:24;;;;;;;7.25;6.40;;;21.80;99.90;;;;;;5091194;28;20230;-70
2023/06/20 01:57:54;;;;;;;10.10;7.30;;;21.80;99.90;;;;;;5090912;28;20212;-70
2023/06/20 02:00:21;;;;;;;8.65;6.55;;;21.90;99.90;;;;;;5090988;28;20181;-71
2023/06/20 02:02:48;;;;;;;10.55;7.13;;;21.80;99.90;;;;;;5090908;28;20180;-71
2023/06/20 02:05:15;;;;;;;7.32;6.47;;;21.80;99.90;;;;;;5090865;28;20728;-70
2023/06/20 02:07:42;;;;;;;7.32;6.72;;;21.80;99.90;;;;;;5090941;28;20651;-71
2023/06/20 02:10:10;;;;;;;10.27;9.25;;;21.70;99.90;;;;;;5090771;28;20170;-71
2023/06/20 02:12:37;;;;;;;8.43;7.63;;;21.60;99.90;;;;;;5093264;28;20213;-71
2023/06/20 02:15:04;;;;;;;9.73;8.82;;;21.50;99.90;;;;;;5094354;28;20181;-71
2023/06/20 02:17:31;;;;;;;7.65;6.95;;;21.40;99.90;;;;;;5094551;28;20527;-71
2023/06/20 02:19:57;;;;;;;8.70;7.65;;;21.30;99.90;;;;;;5093856;28;20166;-71
2023/06/20 02:22:26;;;;;;;9.40;8.02;;;21.10;99.90;;;;;;5094798;28;20197;-69
2023/06/20 02:24:52;;;;;;;9.95;7.88;;;20.80;99.90;;;;;;5094619;28;20284;-71
2023/06/20 02:27:21;;;;;;;7.32;6.60;;;20.70;99.90;;;;;;5094630;28;20639;-71
2023/06/20 02:29:50;;;;;;;8.60;7.72;;;20.60;99.90;;;;;;5094502;28;20535;-71
2023/06/20 02:32:19;;;;;;;8.98;7.53;;;20.50;99.90;;;;;;5076883;28;20201;-71
2023/06/20 02:34:47;;;;;;;8.48;7.57;;;20.40;99.90;;;;;;5094217;28;20674;-70
2023/06/20 02:37:14;;;;;;;8.35;7.53;;;20.30;99.90;;;;;;5095069;28;20184;-70
2023/06/20 02:39:40;;;;;;;8.23;7.28;;;20.30;99.90;;;;;;5093662;28;20181;-70
2023/06/20 02:42:06;;;;;;;9.55;8.05;;;20.30;99.90;;;;;;5094872;28;20181;-71
2023/06/20 02:44:32;;;;;;;7.72;7.10;;;20.40;99.90;;;;;;5096908;28;20194;-75
2023/06/20 02:47:29;;;;;;;7.32;6.68;;;20.40;99.90;;;;;;5084313;28;20177;-76
2023/06/20 02:50:13;;;;;;;7.88;7.07;;;20.30;99.90;;;;;;5083199;28;20173;-77
2023/06/20 02:52:53;;;;;;;7.13;6.43;;;20.30;99.90;;;;;;5084215;28;20211;-77
2023/06/20 02:55:34;;;;;;;7.78;6.65;;;20.20;99.90;;;;;;5101375;28;20188;-76
2023/06/20 02:58:03;;;;;;;9.70;7.70;;;20.10;99.90;;;;;;5079091;28;20181;-76
2023/06/20 03:00:30;;;;;;;6.75;6.15;;;20.00;99.90;;;;;;5099481;28;20169;-75
2023/06/20 03:03:06;;;;;;;8.93;6.78;;;20.00;99.90;;;;;;5081321;28;20177;-76
2023/06/20 03:05:35;;;;;;;7.05;5.95;;;19.90;99.90;;;;;;5097773;28;20196;-76
2023/06/20 03:08:02;;;;;;;7.40;6.15;;;19.80;99.90;;;;;;5102132;28;20651;-76
2023/06/20 03:10:29;;;;;;;7.38;5.85;;;19.70;99.90;;;;;;5104123;28;20177;-77
2023/06/20 03:12:55;;;;;;;6.88;6.13;;;19.60;99.90;;;;;;5104762;28;20268;-76
2023/06/20 03:15:20;;;;;;;7.50;6.78;;;19.60;99.90;;;;;;5101907;28;20287;-75
2023/06/20 03:17:48;;;;;;;7.40;6.70;;;19.50;99.90;;;;;;5085599;28;20193;-77
2023/06/20 03:20:14;;;;;;;11.40;7.05;;;19.50;99.90;;;;;;5105840;28;20165;-75
2023/06/20 03:22:40;;;;;;;7.70;7.00;;;19.50;99.90;;;;;;5090564;28;20173;-77
2023/06/20 03:25:06;;;;;;;7.80;6.40;;;19.50;99.90;;;;;;5087987;28;20243;-75
2023/06/20 03:27:31;;;;;;;7.55;6.85;;;19.40;99.90;;;;;;5088890;28;20181;-75
2023/06/20 03:30:00;;;;;;;7.53;6.75;;;19.40;99.90;;;;;;5106901;28;20244;-76
2023/06/20 03:32:26;;;;;;;8.07;7.00;;;19.40;99.90;;;;;;5085508;28;20239;-77
2023/06/20 03:34:51;;;;;;;8.68;7.25;;;19.30;99.90;;;;;;5104769;28;20250;-75
2023/06/20 03:37:17;;;;;;;8.95;7.05;;;19.30;99.90;;;;;;5106838;28;20189;-77
2023/06/20 03:39:43;;;;;;;7.95;7.35;;;19.30;99.90;;;;;;5103136;28;20184;-75
2023/06/20 03:42:08;;;;;;;7.80;7.00;;;19.30;99.90;;;;;;5085429;28;20184;-75
2023/06/20 03:44:34;;;;;;;8.93;7.93;;;19.30;99.90;;;;;;5094907;28;20197;-71
2023/06/20 03:47:00;;;;;;;9.02;7.53;;;19.30;99.90;;;;;;5093321;28;20673;-71
2023/06/20 03:49:25;;;;;;;13.85;8.20;;;19.40;99.90;;;;;;5093176;28;20195;-71
2023/06/20 03:51:51;;;;;;;11.32;8.20;;;19.40;99.90;;;;;;5093378;28;20177;-71
2023/06/20 03:54:17;;;;;;;11.63;9.57;;;19.40;99.90;;;;;;5093419;28;20220;-72
2023/06/20 03:56:43;;;;;;;9.43;7.45;;;19.40;99.90;;;;;;5093401;28;20169;-71
2023/06/20 03:59:08;;;;;;;9.10;8.02;;;19.40;99.90;;;;;;5092845;28;20674;-71
2023/06/20 04:01:34;;;;;;;8.07;7.28;;;19.50;99.90;;;;;;5092941;28;20177;-70
2023/06/20 04:04:00;;;;;;;8.43;7.63;;;19.50;99.90;;;;;;5092154;28;20173;-71
2023/06/20 04:06:30;;;;;;;9.27;7.40;;;19.50;99.90;;;;;;5093014;28;20201;-72
2023/06/20 04:08:56;;;;;;;8.55;7.75;;;19.50;99.90;;;;;;5093272;28;20185;-72
2023/06/20 04:11:22;;;;;;;9.15;8.25;;;19.70;99.90;;;;;;5092690;28;20262;-72
2023/06/20 04:13:47;;;;;;;11.98;7.40;;;19.70;99.90;;;;;;5092736;28;20686;-72
2023/06/20 04:16:13;;;;;;;9.43;8.43;;;19.70;99.90;;;;;;5092586;28;20197;-72
2023/06/20 04:18:39;;;;;;;9.38;8.38;;;19.80;99.90;;;;;;5092838;28;20170;-72
2023/06/20 04:21:04;;;;;;;8.90;8.07;;;19.80;99.90;;;;;;5092584;28;20267;-71
2023/06/20 04:23:30;;;;;;;9.00;7.63;;;19.80;99.90;;;;;;5074471;28;20177;-71
2023/06/20 04:25:55;;;;;;;8.38;7.68;;;19.90;99.90;;;;;;5092754;28;20280;-71
2023/06/20 04:28:21;;;;;;;8.45;7.45;;;20.00;99.90;;;;;;5092647;28;20178;-71
2023/06/20 04:30:48;;;;;;;8.90;7.72;;;20.00;99.90;;;;;;5091816;28;20257;-71
2023/06/20 04:33:14;;;;;;;8.23;7.35;;;20.10;99.90;;;;;;5092267;28;20211;-71
2023/06/20 04:35:40;;;;;;;8.15;7.55;;;20.10;99.90;;;;;;5074013;28;20197;-71
2023/06/20 04:38:06;;;;;;;7.35;6.75;;;20.10;99.90;;;;;;5074353;28;20201;-72
2023/06/20 04:40:32;;;;;;;7.40;6.68;;;20.20;99.90;;;;;;5092004;28;20189;-71
2023/06/20 04:42:57;;;;;;;7.47;6.88;;;20.20;99.90;;;;;;5074177;28;20185;-71
2023/06/20 04:45:23;;;;;;;7.85;7.03;;;20.30;99.90;;;;;;5091917;28;20218;-71
2023/06/20 04:47:52;;;;;;;8.57;7.57;;;20.40;99.90;;;;;;5092125;28;20169;-71
2023/06/20 04:50:18;;;;;;;6.95;6.35;;;20.60;99.90;;;;;;5091994;28;20176;-71
2023/06/20 04:52:44;;;;;;;8.73;7.53;;;20.70;99.90;;;;;;5091909;28;20663;-71
2023/06/20 04:55:10;;;;;;;8.18;7.38;;;20.80;99.90;;;;;;5092046;28;20188;-69
2023/06/20 04:57:35;;;;;;;9.48;8.63;;;20.90;99.90;;;;;;5091617;28;20178;-71
2023/06/20 05:00:02;;;;;;;8.52;7.82;;;21.00;99.90;;;;;;5091718;28;20184;-71
2023/06/20 05:02:28;;;;;;;8.85;7.95;;;21.10;99.90;;;;;;5091744;28;20172;-71
2023/06/20 05:04:54;;;;;;;6.78;6.28;;;21.20;99.90;;;;;;5091812;28;20193;-70
2023/06/20 05:07:21;;;;;;;7.57;6.80;;;21.20;99.90;;;;;;5091638;28;20270;-71
2023/06/20 05:09:48;;;;;;;6.53;6.03;;;21.20;99.90;;;;;;5090173;28;20546;-71
2023/06/20 05:12:13;;;;;;;8.68;7.88;;;21.20;99.90;;;;;;5091421;28;20205;-71
2023/06/20 05:14:39;;;;;;;10.25;9.20;;;21.30;99.90;;;;;;5091393;28;20662;-72
2023/06/20 05:17:05;;;;;;;10.50;9.77;;;21.40;99.90;;;;;;5091618;28;20205;-71
2023/06/20 05:19:32;;;;;;;11.18;10.18;;;21.40;99.90;;;;;;5091477;28;20174;-71
2023/06/20 05:21:58;;;;;;;8.93;8.20;;;21.50;99.90;;;;;;5091668;28;20165;-70
2023/06/20 05:24:24;;;;;;;9.75;8.95;;;21.60;99.90;;;;;;5091945;28;20174;-71
2023/06/20 05:26:49;;;;;;;8.68;6.88;;;21.60;99.90;;;;;;5091318;28;20180;-71
2023/06/20 05:29:15;;;;;;;10.80;6.95;;;21.70;99.90;;;;;;5091158;28;20671;-68
2023/06/20 05:31:41;;;;;;;6.95;6.25;;;21.70;99.90;;;;;;5091192;28;20232;-71
2023/06/20 05:34:07;;;;;;;7.53;6.82;;;21.80;99.90;;;;;;5091447;28;20193;-71
2023/06/20 05:36:32;;;;;;;7.22;6.50;;;22.10;99.90;;;;;;5091543;28;20173;-71
2023/06/20 05:38:58;;;;;;;6.38;5.68;;;22.50;99.90;;;;;;5074726;28;20656;-71
2023/06/20 05:41:25;;;;;;;11.93;11.05;;;22.80;99.90;;;;;;5070756;28;20173;-71
2023/06/20 05:43:50;;;;;;;9.65;8.75;;;23.20;99.90;;;;;;5071053;28;20210;-70
2023/06/20 05:46:16;;;;;;;11.32;10.52;;;23.60;99.90;;;;;;5080766;28;20724;-71
2023/06/20 05:48:43;;;;;;;6.40;5.90;;;23.80;99.90;;;;;;5091138;28;20169;-70
2023/06/20 05:51:13;;;;;;;6.57;5.97;;;24.00;99.90;;;;;;5090868;28;20223;-70
2023/06/20 05:53:42;;;;;;;6.15;5.65;;;24.20;99.90;;;;;;5090730;28;20201;-70
2023/06/20 05:56:13;;;;;;;7.97;7.28;;;24.50;99.90;;;;;;5091005;28;20189;-70
2023/06/20 05:58:39;;;;;;;6.35;5.93;;;24.80;99.90;;;;;;5091000;28;20207;-70
2023/06/20 06:01:05;;;;;;;12.50;6.07;;;25.30;99.90;;;;;;5090835;28;20174;-71
2023/06/20 06:03:32;;;;;;;6.88;5.47;;;25.70;99.90;;;;;;5090950;28;20733;-71
2023/06/20 06:05:58;;;;;;;5.72;5.22;;;26.20;99.90;;;;;;5090533;28;20258;-71
2023/06/20 06:08:25;;;;;;;6.15;5.53;;;26.40;99.90;;;;;;5090317;28;20185;-70
2023/06/20 06:10:52;;;;;;;6.82;5.40;;;26.50;99.90;;;;;;5090367;28;20315;-70
2023/06/20 06:13:18;;;;;;;8.30;7.50;;;26.50;99.90;;;;;;5090984;28;20197;-71
2023/06/20 06:15:43;;;;;;;9.35;6.45;;;26.50;99.90;;;;;;5090840;28;20258;-70
2023/06/20 06:18:09;;;;;;;7.43;6.80;;;26.30;99.90;;;;;;5090894;28;20538;-70
2023/06/20 06:20:35;;;;;;;10.63;6.72;;;26.30;99.90;;;;;;5090318;28;20185;-69
2023/06/20 06:23:02;;;;;;;7.38;6.68;;;26.20;99.90;;;;;;5090889;28;20194;-70
2023/06/20 06:25:28;;;;;;;6.43;5.85;;;26.20;99.90;;;;;;5090397;28;20193;-69
2023/06/20 06:27:53;;;;;;;9.52;8.68;;;26.40;99.90;;;;;;5090733;28;20170;-70
2023/06/20 06:30:19;;;;;;;7.57;6.75;;;26.70;99.90;;;;;;5072594;28;20200;-70
2023/06/20 06:32:49;;;;;;;8.90;8.20;;;26.90;99.90;;;;;;5089260;28;20251;-70
2023/06/20 06:35:18;;;;;;;7.88;7.07;;;27.00;99.90;;;;;;5090506;28;20189;-71
2023/06/20 06:37:45;;;;;;;7.85;6.55;;;27.20;99.90;;;;;;5071947;28;20170;-70
2023/06/20 06:40:11;;;;;;;7.00;6.30;;;27.20;99.90;;;;;;5090659;28;20223;-70
2023/06/20 06:42:37;;;;;;;6.78;6.10;;;27.30;99.90;;;;;;5072768;28;20222;-71
2023/06/20 06:45:04;;;;;;;7.13;6.45;;;27.40;99.90;;;;;;5090359;28;20601;-69
2023/06/20 06:47:30;;;;;;;6.45;5.85;;;27.60;99.90;;;;;;5090669;28;20179;-70
2023/06/20 06:49:55;;;;;;;6.32;5.72;;;28.00;99.90;;;;;;5090336;28;20562;-71
2023/06/20 06:52:21;;;;;;;7.22;6.25;;;28.30;99.90;;;;;;5090889;28;20199;-70
2023/06/20 06:54:46;;;;;;;7.35;5.40;;;28.50;99.90;;;;;;5090866;28;20711;-70
2023/06/20 06:57:12;;;;;;;9.85;6.30;;;28.80;99.90;;;;;;5090532;28;20161;-71
2023/06/20 06:59:38;;;;;;;11.70;6.32;;;28.90;99.90;;;;;;5092993;28;20176;-71
2023/06/20 07:02:05;;;;;;;9.48;7.40;;;29.10;99.90;;;;;;5094120;28;20169;-68
2023/06/20 07:04:31;;;;;;;6.25;5.63;;;29.20;99.90;;;;;;5092780;28;20231;-68
2023/06/20 07:06:56;;;;;;;10.63;6.40;;;29.10;99.90;;;;;;5094042;28;20216;-69
2023/06/20 07:09:22;;;;;;;6.68;6.07;;;29.20;99.90;;;;;;5093421;28;20221;-71
2023/06/20 07:11:48;;;;;;;6.13;5.53;;;29.50;99.90;;;;;;5075844;28;20543;-70
2023/06/20 07:14:13;;;;;;;6.43;5.18;;;29.50;99.90;;;;;;5093964;28;20165;-69
2023/06/20 07:16:39;;;;;;;6.38;5.88;;;29.30;99.90;;;;;;5093610;28;20169;-70
2023/06/20 07:19:05;;;;;;;6.70;6.07;;;29.10;99.90;;;;;;5093186;28;20609;-70
2023/06/20 07:21:30;;;;;;;7.20;6.53;;;29.00;99.90;;;;;;5093109;28;20651;-70
2023/06/20 07:23:56;;;;;;;5.85;5.30;;;29.00;99.90;;;;;;5093742;28;20233;-70
2023/06/20 07:26:21;;;;;;;5.53;4.72;;;29.10;99.90;;;;;;5093875;28;20185;-70
2023/06/20 07:28:47;;;;;;;5.40;4.90;;;29.30;99.90;;;;;;5093921;28;20176;-71
2023/06/20 07:31:17;;;;;;;5.32;4.82;;;29.40;99.90;;;;;;5092829;28;20488;-70
2023/06/20 07:33:43;;;;;;;5.80;5.25;;;29.40;99.90;;;;;;5093587;28;20838;-70
2023/06/20 07:36:08;;;;;;;7.07;5.30;;;29.40;99.90;;;;;;5075464;28;20197;-71
2023/06/20 07:38:34;;;;;;;5.80;5.20;;;29.50;99.90;;;;;;5093798;28;20178;-70
2023/06/20 07:40:59;;;;;;;4.65;4.25;;;29.90;99.90;;;;;;5093291;28;20170;-70
2023/06/20 07:43:25;;;;;;;5.47;4.97;;;30.20;99.90;;;;;;5093429;28;20173;-70
2023/06/20 07:45:51;;;;;;;5.85;5.32;;;30.40;99.90;;;;;;5093382;28;20201;-70
2023/06/20 07:48:17;;;;;;;5.50;5.00;;;30.60;99.90;;;;;;5093411;28;20170;-70
2023/06/20 07:50:42;;;;;;;6.05;4.75;;;30.80;99.90;;;;;;5092906;28;20177;-70
2023/06/20 07:53:08;;;;;;;6.03;5.43;;;31.00;99.90;;;;;;5093348;28;20556;-70
2023/06/20 07:55:34;;;;;;;5.35;4.85;;;31.10;99.90;;;;;;5092895;28;20190;-70
2023/06/20 07:57:59;;;;;;;7.05;6.50;;;31.20;99.90;;;;;;5093382;28;20166;-70
2023/06/20 08:00:26;;;;;;;4.75;4.35;;;31.10;99.90;;;;;;5092940;28;20174;-71
2023/06/20 08:02:52;;;;;;;7.13;6.63;;;31.10;99.90;;;;;;5093141;28;20599;-69
2023/06/20 08:05:18;;;;;;;5.40;5.00;;;31.20;99.90;;;;;;5092963;28;20280;-69
2023/06/20 08:07:43;;;;;;;6.95;5.80;;;31.30;99.90;;;;;;5092765;28;20276;-70
2023/06/20 08:10:10;;;;;;;7.40;6.90;;;31.50;99.90;;;;;;5092373;28;20245;-71
2023/06/20 08:12:37;;;;;;;7.80;7.18;;;31.60;99.90;;;;;;5092657;28;20610;-70
2023/06/20 08:15:02;;;;;;;9.02;8.35;;;31.50;99.90;;;;;;5092084;28;20246;-71
2023/06/20 08:17:28;;;;;;;6.20;5.70;;;31.60;99.90;;;;;;5091349;28;20240;-71
2023/06/20 08:19:54;;;;;;;6.75;6.25;;;31.90;99.90;;;;;;5073315;28;20645;-71
2023/06/20 08:22:19;;;;;;;9.68;9.07;;;32.00;99.90;;;;;;5092044;28;20173;-69
2023/06/20 08:24:45;;;;;;;8.63;7.93;;;32.20;99.90;;;;;;5092236;28;20556;-71
2023/06/20 08:27:10;;;;;;;7.63;6.47;;;32.30;99.90;;;;;;5092496;28;20666;-71
2023/06/20 08:29:36;;;;;;;9.88;9.07;;;32.40;99.90;;;;;;5092214;28;20629;-71
2023/06/20 08:32:01;;;;;;;6.55;6.03;;;32.70;99.90;;;;;;5092549;28;20238;-68
2023/06/20 08:34:27;;;;;;;6.68;6.18;;;33.00;99.90;;;;;;5092470;28;20185;-71
2023/06/20 08:36:53;;;;;;;6.85;6.25;;;33.00;99.90;;;;;;5092705;28;20196;-71
2023/06/20 08:39:19;;;;;;;6.93;6.22;;;33.20;99.90;;;;;;5092145;28;20166;-69
2023/06/20 08:41:45;;;;;;;5.78;5.38;;;33.30;99.90;;;;;;5092190;28;20621;-69
2023/06/20 08:44:11;;;;;;;4.72;4.32;;;33.50;99.90;;;;;;5092343;28;20182;-69
2023/06/20 08:46:37;;;;;;;5.38;4.80;;;33.70;99.90;;;;;;5092210;28;20166;-71
2023/06/20 08:49:03;;;;;;;4.78;4.38;;;34.30;99.90;;;;;;5092293;28;20173;-69
2023/06/20 08:51:29;;;;;;;6.05;5.55;;;34.60;99.90;;;;;;5091636;28;20178;-69
2023/06/20 08:53:55;;;;;;;4.78;4.20;;;34.90;99.90;;;;;;5092080;28;20205;-69
2023/06/20 08:56:23;;;;;;;5.80;4.75;;;35.40;99.90;;;;;;5091652;28;20537;-68
2023/06/20 08:58:48;;;;;;;6.10;5.47;;;35.60;99.90;;;;;;5091440;28;20169;-68
2023/06/20 09:01:14;;;;;;;7.43;5.28;;;35.40;99.90;;;;;;5091558;28;20185;-69
2023/06/20 09:03:40;;;;;;;4.85;4.55;;;35.20;99.90;;;;;;5091570;28;20200;-69
2023/06/20 09:06:06;;;;;;;4.70;4.30;;;35.40;99.90;;;;;;5090454;28;20272;-69
2023/06/20 09:08:43;;;;;;;8.55;5.90;;;35.50;99.90;;;;;;5091737;28;20371;-68
2023/06/20 09:11:10;;;;;;;7.30;6.57;;;35.30;99.90;;;;;;5091613;28;20173;-69
2023/06/20 09:13:36;;;;;;;5.28;4.75;;;34.70;99.90;;;;;;5091405;28;20237;-70
2023/06/20 09:16:05;;;;;;;5.45;4.32;;;34.10;99.90;;;;;;5091137;28;20546;-67
2023/06/20 09:18:33;;;;;;;5.63;5.18;;;34.10;99.90;;;;;;5091286;28;20252;-70
2023/06/20 09:20:58;;;;;;;5.07;4.40;;;34.10;99.90;;;;;;5090772;28;20169;-71
2023/06/20 09:23:31;;;;;;;5.90;5.40;;;34.30;99.90;;;;;;5091526;28;20572;-70
2023/06/20 09:26:14;;;;;;;7.38;6.78;;;34.60;99.90;;;;;;5091545;28;20254;-70
2023/06/20 09:28:40;;;;;;;7.55;6.47;;;34.70;99.90;;;;;;5091040;28;20243;-70
2023/06/20 09:31:05;;;;;;;8.35;6.47;;;34.70;99.90;;;;;;5091051;28;20189;-71
2023/06/20 09:33:31;;;;;;;5.47;5.07;;;34.60;99.90;;;;;;5084718;28;20202;-69
2023/06/20 09:36:13;;;;;;;6.55;6.05;;;34.30;99.90;;;;;;5076895;28;20232;-71
2023/06/20 09:38:50;;;;;;;8.32;6.22;;;33.70;99.90;;;;;;5089407;28;20543;-73
2023/06/20 09:41:16;;;;;;;5.85;4.95;;;33.60;99.90;;;;;;5091132;28;20173;-70
2023/06/20 09:43:43;;;;;;;7.35;6.80;;;33.90;99.90;;;;;;5090145;28;20173;-72
2023/06/20 09:46:08;;;;;;;5.53;5.05;;;33.90;99.90;;;;;;5091416;28;20196;-71
2023/06/20 09:48:35;;;;;;;5.93;5.28;;;33.90;99.90;;;;;;5091160;28;20169;-70
2023/06/20 09:51:01;;;;;;;4.70;4.30;;;34.20;99.90;;;;;;5091059;28;20172;-70
2023/06/20 09:53:39;;;;;;;5.95;5.55;;;34.70;99.90;;;;;;5090941;28;20622;-69
2023/06/20 09:56:07;;;;;;;5.72;5.40;;;35.10;99.90;;;;;;5091269;28;20203;-70
2023/06/20 09:58:34;;;;;;;5.40;5.00;;;35.40;99.90;;;;;;5090717;28;20177;-70
2023/06/20 10:01:01;;;;;;;7.90;7.28;;;35.40;99.90;;;;;;5090595;28;20179;-69
2023/06/20 10:03:27;;;;;;;4.15;3.85;;;35.30;99.90;;;;;;5090874;28;20180;-69
2023/06/20 10:05:54;;;;;;;4.40;4.10;;;35.40;99.90;;;;;;5091181;28;20272;-69
2023/06/20 10:08:21;;;;;;;3.85;3.63;;;35.40;99.90;;;;;;5090959;28;20185;-70
2023/06/20 10:10:46;;;;;;;4.25;3.95;;;35.70;99.90;;;;;;5090021;28;20170;-70
2023/06/20 10:13:13;;;;;;;4.50;4.10;;;35.90;99.90;;;;;;5091010;28;20201;-70
2023/06/20 10:15:39;;;;;;;4.75;4.43;;;36.10;99.90;;;;;;5090539;28;20185;-71
2023/06/20 10:18:38;;;;;;;4.50;4.10;;;36.20;99.90;;;;;;5091300;28;20204;-69
2023/06/20 10:21:12;;;;;;;4.35;3.95;;;35.90;99.90;;;;;;5088935;28;20185;-70
2023/06/20 10:23:38;;;;;;;3.92;3.63;;;35.30;99.90;;;;;;5072536;28;20211;-69
2023/06/20 10:26:07;;;;;;;5.45;4.07;;;35.10;99.90;;;;;;5090924;28;20216;-70
2023/06/20 10:28:35;;;;;;;4.22;3.90;;;35.10;99.90;;;;;;5090856;28;20174;-70
2023/06/20 10:31:02;;;;;;;4.43;4.03;;;34.80;99.90;;;;;;5090328;28;20647;-69
2023/06/20 10:33:28;;;;;;;4.07;3.78;;;34.90;99.90;;;;;;5093545;28;20209;-69
2023/06/20 10:36:02;;;;;;;4.15;3.75;;;35.30;99.90;;;;;;5094213;28;20193;-68
2023/06/20 10:38:28;;;;;;;3.60;3.40;;;35.40;99.90;;;;;;5094896;28;20158;-69
2023/06/20 10:41:25;;;;;;;4.00;3.70;;;35.60;99.90;;;;;;5094486;28;20170;-72
2023/06/20 10:43:54;;;;;;;5.90;3.78;;;35.70;99.90;;;;;;5094573;28;20173;-70
2023/06/20 10:46:49;;;;;;;4.40;4.10;;;35.90;99.90;;;;;;5093936;28;20559;-70
2023/06/20 10:49:14;;;;;;;4.13;3.83;;;36.30;99.90;;;;;;5094166;28;20260;-69
2023/06/20 10:51:51;;;;;;;3.63;3.33;;;36.60;99.90;;;;;;5093881;28;20268;-70
2023/06/20 10:54:18;;;;;;;4.05;3.75;;;36.60;99.90;;;;;;5094379;28;20270;-70
2023/06/20 10:56:44;;;;;;;3.75;3.45;;;36.90;99.90;;;;;;5093972;28;20166;-70
2023/06/20 10:59:13;;;;;;;3.70;3.40;;;37.20;99.90;;;;;;5093728;28;20231;-69
2023/06/20 11:01:39;;;;;;;3.63;3.38;;;37.20;99.90;;;;;;5093859;28;20200;-70
2023/06/20 11:04:12;;;;;;;4.28;3.97;;;36.90;99.90;;;;;;5091381;28;20220;-70
2023/06/20 11:06:39;;;;;;;3.95;3.70;;;36.60;99.90;;;;;;5093744;28;20645;-70
2023/06/20 11:09:05;;;;;;;4.15;3.70;;;36.80;99.90;;;;;;5093804;28;20640;-70
2023/06/20 11:11:40;;;;;;;3.58;3.28;;;37.00;99.90;;;;;;5093665;28;20177;-70
2023/06/20 11:14:22;;;;;;;4.00;3.70;;;36.80;99.90;;;;;;5093829;28;20313;-71
2023/06/20 11:16:49;;;;;;;4.32;3.92;;;36.30;99.90;;;;;;5093740;28;20181;-70
2023/06/20 11:19:19;;;;;;;3.75;3.45;;;36.30;99.90;;;;;;5092893;28;20181;-70
2023/06/20 11:21:44;;;;;;;7.22;3.58;;;36.70;99.90;;;;;;5093314;28;20238;-70
2023/06/20 11:24:11;;;;;;;3.67;3.38;;;37.30;99.90;;;;;;5093761;28;20647;-70
2023/06/20 11:26:36;;;;;;;5.38;3.50;;;37.60;99.90;;;;;;5093447;28;20530;-69
2023/06/20 11:29:05;;;;;;;5.38;3.33;;;37.60;99.90;;;;;;5093858;28;20169;-71
2023/06/20 11:31:32;;;;;;;3.78;3.47;;;37.70;99.90;;;;;;5092705;28;20169;-71
2023/06/20 11:34:08;;;;;;;4.18;3.78;;;37.80;99.90;;;;;;5093632;28;20298;-70
2023/06/20 11:36:35;;;;;;;5.68;5.07;;;37.90;99.90;;;;;;5075304;28;20252;-71
2023/06/20 11:39:08;;;;;;;4.88;4.25;;;37.80;99.90;;;;;;5093600;28;20626;-70
2023/06/20 11:41:35;;;;;;;4.85;4.45;;;38.00;99.90;;;;;;5074944;28;20177;-70
2023/06/20 11:44:02;;;;;;;4.90;4.60;;;38.30;99.90;;;;;;5092938;28;20306;-69
2023/06/20 11:46:28;;;;;;;5.03;4.63;;;38.40;99.70;;;;;;5093160;28;20658;-70
2023/06/20 11:48:58;;;;;;;5.38;4.97;;;38.20;99.90;;;;;;5093548;28;20222;-70
2023/06/20 11:51:26;;;;;;;4.47;4.18;;;38.10;99.20;;;;;;5093102;28;20162;-70
2023/06/20 11:54:05;;;;;;;4.82;4.45;;;38.10;99.60;;;;;;5093110;28;20209;-70
2023/06/20 11:56:30;;;;;;;6.13;3.65;;;38.10;99.70;;;;;;5093163;28;20189;-70
2023/06/20 11:58:57;;;;;;;3.58;3.38;;;38.20;99.00;;;;;;5075022;28;20170;-70
2023/06/20 12:01:26;;;;;;;4.05;3.83;;;38.30;99.40;;;;;;5092649;28;20166;-70
2023/06/20 12:04:06;;;;;;;3.90;3.60;;;38.60;98.60;;;;;;5093054;28;20177;-70
2023/06/20 12:06:34;;;;;;;4.72;3.75;;;38.80;98.40;;;;;;5092776;28;20173;-69
2023/06/20 12:09:04;;;;;;;3.47;3.28;;;38.20;97.50;;;;;;5093038;28;20192;-69
2023/06/20 12:11:30;;;;;;;3.50;3.30;;;37.50;98.70;;;;;;5092640;28;20189;-69
2023/06/20 12:13:57;;;;;;;3.65;3.35;;;37.20;99.20;;;;;;5092725;28;20743;-69
2023/06/20 12:16:23;;;;;;;3.42;3.22;;;37.20;98.70;;;;;;5092944;28;20209;-70
2023/06/20 12:18:51;;;;;;;3.63;3.42;;;37.40;98.20;;;;;;5093058;28;20218;-70
2023/06/20 12:21:17;;;;;;;3.95;3.40;;;37.00;97.90;;;;;;5092291;28;20169;-70
2023/06/20 12:23:43;;;;;;;3.63;3.33;;;37.20;98.80;;;;;;5092428;28;20178;-70
2023/06/20 12:26:10;;;;;;;4.03;3.60;;;37.10;98.30;;;;;;5092557;28;20198;-70
2023/06/20 12:28:36;;;;;;;3.58;3.28;;;36.80;96.90;;;;;;5092253;28;20188;-69
2023/06/20 12:31:05;;;;;;;3.80;3.50;;;36.60;97.30;;;;;;5092369;28;20165;-70
2023/06/20 12:33:31;;;;;;;4.30;3.15;;;36.40;98.20;;;;;;5074201;28;20512;-69
2023/06/20 12:35:58;;;;;;;3.50;3.20;;;36.10;97.50;;;;;;5092363;28;20193;-70
2023/06/20 12:38:25;;;;;;;3.92;3.63;;;35.80;97.60;;;;;;5092505;28;20166;-70
2023/06/20 12:40:52;;;;;;;3.38;3.17;;;35.50;98.30;;;;;;5091962;28;20180;-70
2023/06/20 12:43:17;;;;;;;3.67;3.38;;;35.60;99.10;;;;;;5091099;28;20268;-70
2023/06/20 12:45:46;;;;;;;3.97;3.60;;;36.20;98.40;;;;;;5091917;28;20284;-71
2023/06/20 12:48:11;;;;;;;3.75;3.45;;;36.60;96.40;;;;;;5092338;28;20226;-70